Time;durP1;ratioP1;P1;durP2;ratioP2;P2;SDS_P1;SDS_P2;PMS_P1;PMS_P2;Temp;Humidity;BMP_temperature;BMP_pressure;BME280_temperature;BME280_humidity;BME280_pressure;Samples;Min_cycle;Max_cycle;Signal;HPM_P1;HPM_P2
2023/09/19 00:01:45;;;;;;;6.63;1.20;;;;;;;;;;6184770;23;20076;-68
2023/09/19 00:04:12;;;;;;;4.70;1.50;;;;;;;;;;6184611;23;20072;-68
2023/09/19 00:06:42;;;;;;;4.50;1.50;;;;;;;;;;6184476;23;20080;-68
2023/09/19 00:09:10;;;;;;;3.00;1.20;;;;;;;;;;6184423;23;20124;-68
2023/09/19 00:11:38;;;;;;;7.05;1.60;;;;;;;;;;6184548;23;20075;-68
2023/09/19 00:14:08;;;;;;;8.55;1.50;;;;;;;;;;6184135;23;20080;-68
2023/09/19 00:16:35;;;;;;;4.55;1.60;;;;;;;;;;6185562;23;20076;-68
2023/09/19 00:19:03;;;;;;;3.97;1.30;;;;;;;;;;6186694;23;20068;-68
2023/09/19 00:21:31;;;;;;;4.28;1.58;;;;;;;;;;6160289;23;20072;-68
2023/09/19 00:23:58;;;;;;;6.50;1.50;;;;;;;;;;6186360;23;20084;-68
2023/09/19 00:26:24;;;;;;;5.05;1.65;;;;;;;;;;6186490;23;20095;-68
2023/09/19 00:28:53;;;;;;;4.18;1.48;;;;;;;;;;6186059;23;20063;-68
2023/09/19 00:31:19;;;;;;;5.45;1.40;;;;;;;;;;6186483;23;20081;-68
2023/09/19 00:33:45;;;;;;;3.00;1.45;;;;;;;;;;6186558;23;20084;-68
2023/09/19 00:36:12;;;;;;;5.90;1.20;;;;;;;;;;6186481;23;20080;-68
2023/09/19 00:38:38;;;;;;;6.65;1.23;;;;;;;;;;6186376;23;20064;-68
2023/09/19 00:41:04;;;;;;;4.88;1.38;;;;;;;;;;6186524;23;20080;-68
2023/09/19 00:43:34;;;;;;;5.22;1.20;;;;;;;;;;6159694;23;20084;-68
2023/09/19 00:46:03;;;;;;;4.40;1.20;;;;;;;;;;6186447;23;20443;-68
2023/09/19 00:48:29;;;;;;;4.38;1.35;;;;;;;;;;6186258;23;20072;-68
2023/09/19 00:50:58;;;;;;;5.22;1.55;;;;;;;;;;6186363;23;20076;-68
2023/09/19 00:53:25;;;;;;;3.47;1.30;;;;;;;;;;6186108;23;20076;-68
2023/09/19 00:55:52;;;;;;;5.43;1.60;;;;;;;;;;6186336;23;20076;-68
2023/09/19 00:58:20;;;;;;;4.43;1.42;;;;;;;;;;6186494;23;20080;-68
2023/09/19 01:00:47;;;;;;;4.32;1.55;;;;;;;;;;6186021;23;20084;-68
2023/09/19 01:03:14;;;;;;;3.35;1.40;;;;;;;;;;6186234;23;20068;-68
2023/09/19 01:05:40;;;;;;;4.05;1.48;;;;;;;;;;6185965;23;20088;-68
2023/09/19 01:08:07;;;;;;;6.00;1.70;;;;;;;;;;6186023;23;20072;-68
2023/09/19 01:10:33;;;;;;;4.03;1.45;;;;;;;;;;6185644;23;20088;-68
2023/09/19 01:13:11;;;;;;;3.22;1.40;;;;;;;;;;6186167;23;20067;-68
2023/09/19 01:15:40;;;;;;;6.55;1.45;;;;;;;;;;6186155;23;20075;-68
2023/09/19 01:18:22;;;;;;;9.35;1.80;;;;;;;;;;6185929;23;20476;-68
2023/09/19 01:20:52;;;;;;;5.82;1.77;;;;;;;;;;6186060;23;20068;-68
2023/09/19 01:23:41;;;;;;;5.90;1.23;;;;;;;;;;6185776;23;20092;-68
2023/09/19 01:26:22;;;;;;;7.05;1.92;;;;;;;;;;6185211;23;20821;-68
2023/09/19 01:29:13;;;;;;;3.10;1.40;;;;;;;;;;6185314;23;20496;-68
2023/09/19 01:31:40;;;;;;;5.57;1.40;;;;;;;;;;6171428;23;20076;-68
2023/09/19 01:34:08;;;;;;;4.88;1.40;;;;;;;;;;6185886;23;20312;-68
2023/09/19 01:36:38;;;;;;;4.07;1.50;;;;;;;;;;6185833;23;20499;-68
2023/09/19 01:39:09;;;;;;;4.37;1.20;;;;;;;;;;6185966;23;20075;-68
2023/09/19 01:41:50;;;;;;;4.97;1.52;;;;;;;;;;6185529;23;20072;-68
2023/09/19 01:44:22;;;;;;;7.18;1.75;;;;;;;;;;6159461;23;20488;-68
2023/09/19 01:46:49;;;;;;;5.38;1.65;;;;;;;;;;6185659;23;20080;-68
2023/09/19 01:49:32;;;;;;;5.13;1.73;;;;;;;;;;6185700;23;20383;-68
2023/09/19 01:52:06;;;;;;;6.60;1.60;;;;;;;;;;6186102;23;20484;-68
2023/09/19 01:54:37;;;;;;;6.53;1.58;;;;;;;;;;6185380;23;20512;-68
2023/09/19 01:57:10;;;;;;;4.57;1.55;;;;;;;;;;6185726;23;20073;-68
2023/09/19 01:59:41;;;;;;;4.32;1.38;;;;;;;;;;6185778;23;20072;-68
2023/09/19 02:02:08;;;;;;;3.78;1.40;;;;;;;;;;6185550;23;20072;-68
2023/09/19 02:04:35;;;;;;;3.38;1.65;;;;;;;;;;6185582;23;20081;-68
2023/09/19 02:07:02;;;;;;;4.68;1.40;;;;;;;;;;6185613;23;20072;-68
2023/09/19 02:09:28;;;;;;;3.88;1.50;;;;;;;;;;6185147;23;20507;-68
2023/09/19 02:12:00;;;;;;;4.45;1.40;;;;;;;;;;6185628;23;20076;-68
2023/09/19 02:14:30;;;;;;;4.40;1.42;;;;;;;;;;6135273;23;20080;-68
2023/09/19 02:16:59;;;;;;;5.85;1.35;;;;;;;;;;6185499;23;20081;-68
2023/09/19 02:19:30;;;;;;;3.33;1.50;;;;;;;;;;6160314;23;20451;-68
2023/09/19 02:22:03;;;;;;;4.57;1.60;;;;;;;;;;6158297;23;20504;-68
2023/09/19 02:24:31;;;;;;;4.87;1.30;;;;;;;;;;6154606;23;20080;-68
2023/09/19 02:26:59;;;;;;;7.40;1.60;;;;;;;;;;6185287;23;20316;-68
2023/09/19 02:29:34;;;;;;;6.47;1.38;;;;;;;;;;6185283;23;20080;-68
2023/09/19 02:32:01;;;;;;;4.20;1.33;;;;;;;;;;6185408;23;20378;-68
2023/09/19 02:34:28;;;;;;;5.20;1.73;;;;;;;;;;6185326;23;20064;-68
2023/09/19 02:36:55;;;;;;;7.97;1.67;;;;;;;;;;6159352;23;20080;-68
2023/09/19 02:39:24;;;;;;;3.90;1.50;;;;;;;;;;6158867;23;20076;-68
2023/09/19 02:41:50;;;;;;;4.97;1.60;;;;;;;;;;6159007;23;20072;-68
2023/09/19 02:44:17;;;;;;;5.40;1.40;;;;;;;;;;6185309;23;20073;-68
2023/09/19 02:46:43;;;;;;;4.90;1.58;;;;;;;;;;6158728;23;20096;-68
2023/09/19 02:49:09;;;;;;;7.40;1.42;;;;;;;;;;6158904;23;20116;-68
2023/09/19 02:51:36;;;;;;;7.18;1.70;;;;;;;;;;6185230;23;20084;-68
2023/09/19 02:54:05;;;;;;;4.47;1.30;;;;;;;;;;6184718;23;20060;-68
2023/09/19 02:56:32;;;;;;;7.55;1.65;;;;;;;;;;6134297;23;20084;-68
2023/09/19 02:59:00;;;;;;;6.35;1.48;;;;;;;;;;6185399;23;20076;-68
2023/09/19 03:01:28;;;;;;;4.38;1.40;;;;;;;;;;6185088;23;20068;-68
2023/09/19 03:03:54;;;;;;;9.32;1.60;;;;;;;;;;6185062;23;20088;-68
2023/09/19 03:06:21;;;;;;;8.30;2.00;;;;;;;;;;6184886;23;20123;-68
2023/09/19 03:08:49;;;;;;;6.38;1.50;;;;;;;;;;6184707;23;20081;-68
2023/09/19 03:11:18;;;;;;;7.55;1.67;;;;;;;;;;6185220;23;20080;-68
2023/09/19 03:13:45;;;;;;;9.20;1.65;;;;;;;;;;6184985;23;20076;-68
2023/09/19 03:16:15;;;;;;;7.40;1.58;;;;;;;;;;6185012;23;20075;-68
2023/09/19 03:18:41;;;;;;;8.55;1.73;;;;;;;;;;6184873;23;20072;-68
2023/09/19 03:21:07;;;;;;;5.07;1.40;;;;;;;;;;6184609;23;20472;-68
2023/09/19 03:23:33;;;;;;;8.35;1.77;;;;;;;;;;6184793;23;20072;-68
2023/09/19 03:26:00;;;;;;;6.47;1.65;;;;;;;;;;6184688;23;20092;-68
2023/09/19 03:28:27;;;;;;;4.68;1.42;;;;;;;;;;6158605;23;20064;-68
2023/09/19 03:31:03;;;;;;;9.45;1.85;;;;;;;;;;6184853;23;20128;-68
2023/09/19 03:33:33;;;;;;;8.10;1.40;;;;;;;;;;6184785;23;20064;-68
2023/09/19 03:36:01;;;;;;;9.95;2.10;;;;;;;;;;6184284;23;20088;-68
2023/09/19 03:38:31;;;;;;;11.52;2.10;;;;;;;;;;6184682;23;20060;-68
2023/09/19 03:40:57;;;;;;;3.45;1.15;;;;;;;;;;6184816;23;20131;-68
2023/09/19 03:43:24;;;;;;;6.60;1.63;;;;;;;;;;6158534;23;20123;-68
2023/09/19 03:45:50;;;;;;;8.10;1.58;;;;;;;;;;6158252;23;20096;-68
2023/09/19 03:48:17;;;;;;;9.55;1.90;;;;;;;;;;6158294;23;20080;-68
2023/09/19 03:50:46;;;;;;;8.77;2.30;;;;;;;;;;6183918;23;20076;-68
2023/09/19 03:53:13;;;;;;;6.72;1.58;;;;;;;;;;6182067;23;20431;-68
2023/09/19 03:55:39;;;;;;;8.32;1.60;;;;;;;;;;6184699;23;20087;-68
2023/09/19 03:58:06;;;;;;;15.80;1.95;;;;;;;;;;6184605;23;20080;-68
2023/09/19 04:00:34;;;;;;;5.72;1.75;;;;;;;;;;6185136;23;20084;-68
2023/09/19 04:03:05;;;;;;;8.57;1.70;;;;;;;;;;6184650;23;20072;-68
2023/09/19 04:05:32;;;;;;;7.85;1.70;;;;;;;;;;6184159;23;20081;-68
2023/09/19 04:07:58;;;;;;;11.27;1.85;;;;;;;;;;6184635;23;20083;-68
2023/09/19 04:10:25;;;;;;;8.45;1.80;;;;;;;;;;6158222;23;20085;-68
2023/09/19 04:12:52;;;;;;;5.35;1.80;;;;;;;;;;6184628;23;20508;-68
2023/09/19 04:15:19;;;;;;;11.10;1.60;;;;;;;;;;6184589;23;20076;-68
2023/09/19 04:17:45;;;;;;;7.88;1.60;;;;;;;;;;6184514;23;20516;-68
2023/09/19 04:20:12;;;;;;;8.73;1.83;;;;;;;;;;6184170;23;20512;-68
2023/09/19 04:22:39;;;;;;;11.38;1.83;;;;;;;;;;6184475;23;20069;-68
2023/09/19 04:25:08;;;;;;;8.38;2.20;;;;;;;;;;6184204;23;20147;-68
2023/09/19 04:27:35;;;;;;;9.88;1.90;;;;;;;;;;6184490;23;20072;-68
2023/09/19 04:30:03;;;;;;;14.57;2.22;;;;;;;;;;6184555;23;20081;-68
2023/09/19 04:32:32;;;;;;;6.97;1.50;;;;;;;;;;6184565;23;20076;-68
2023/09/19 04:35:00;;;;;;;10.15;2.25;;;;;;;;;;6184051;23;20353;-68
2023/09/19 04:37:26;;;;;;;14.15;1.90;;;;;;;;;;6184476;23;20178;-68
2023/09/19 04:39:54;;;;;;;4.90;1.33;;;;;;;;;;6184683;23;20080;-68
2023/09/19 04:42:21;;;;;;;8.25;1.83;;;;;;;;;;6184518;23;20080;-68
2023/09/19 04:44:49;;;;;;;5.78;1.60;;;;;;;;;;6184367;23;20515;-67
2023/09/19 04:47:16;;;;;;;14.05;2.50;;;;;;;;;;6184416;23;20373;-68
2023/09/19 04:49:42;;;;;;;9.07;1.70;;;;;;;;;;6184135;23;20080;-68
2023/09/19 04:52:08;;;;;;;9.25;1.80;;;;;;;;;;6184374;23;20076;-68
2023/09/19 04:54:35;;;;;;;6.22;1.55;;;;;;;;;;6184360;23;20088;-68
2023/09/19 04:57:01;;;;;;;9.05;2.03;;;;;;;;;;6184457;23;20087;-68
2023/09/19 04:59:28;;;;;;;12.27;1.83;;;;;;;;;;6184404;23;20083;-68
2023/09/19 05:01:55;;;;;;;5.30;1.88;;;;;;;;;;6184759;23;20068;-68
2023/09/19 05:04:22;;;;;;;6.45;1.85;;;;;;;;;;6185914;23;20084;-68
2023/09/19 05:06:49;;;;;;;4.75;1.50;;;;;;;;;;6185971;23;20088;-68
2023/09/19 05:09:16;;;;;;;8.25;1.70;;;;;;;;;;6186206;23;20068;-68
2023/09/19 05:11:43;;;;;;;7.47;1.88;;;;;;;;;;6186161;23;20096;-68
2023/09/19 05:14:10;;;;;;;7.97;1.70;;;;;;;;;;6186093;23;20068;-68
2023/09/19 05:16:36;;;;;;;8.13;1.60;;;;;;;;;;6186035;23;20119;-68
2023/09/19 05:19:02;;;;;;;9.02;1.90;;;;;;;;;;6185690;23;20388;-68
2023/09/19 05:21:30;;;;;;;7.50;1.75;;;;;;;;;;6186070;23;20076;-68
2023/09/19 05:23:56;;;;;;;8.55;1.65;;;;;;;;;;6185801;23;20083;-68
2023/09/19 05:26:22;;;;;;;6.53;1.73;;;;;;;;;;6185837;23;20096;-68
2023/09/19 05:28:49;;;;;;;9.07;1.88;;;;;;;;;;6159532;23;20515;-68
2023/09/19 05:31:16;;;;;;;8.98;1.90;;;;;;;;;;6185893;23;20073;-68
2023/09/19 05:33:42;;;;;;;6.68;1.67;;;;;;;;;;6185631;23;20088;-68
2023/09/19 05:36:11;;;;;;;9.63;1.70;;;;;;;;;;6185864;23;20088;-68
2023/09/19 05:38:41;;;;;;;7.70;1.70;;;;;;;;;;6186025;23;20076;-68
2023/09/19 05:41:12;;;;;;;8.77;1.70;;;;;;;;;;6186118;23;20076;-68
2023/09/19 05:43:40;;;;;;;8.15;1.90;;;;;;;;;;6185822;23;20311;-68
2023/09/19 05:46:08;;;;;;;6.82;1.70;;;;;;;;;;6185166;23;20087;-68
2023/09/19 05:48:34;;;;;;;8.10;1.65;;;;;;;;;;6185762;23;20115;-68
2023/09/19 05:51:01;;;;;;;7.40;2.10;;;;;;;;;;6185768;23;20075;-68
2023/09/19 05:53:28;;;;;;;7.90;1.65;;;;;;;;;;6185675;23;20073;-68
2023/09/19 05:55:55;;;;;;;10.68;1.90;;;;;;;;;;6185666;23;20064;-68
2023/09/19 05:58:21;;;;;;;5.85;1.63;;;;;;;;;;6185629;23;20365;-68
2023/09/19 06:00:49;;;;;;;8.18;2.30;;;;;;;;;;6185118;23;20226;-68
2023/09/19 06:03:17;;;;;;;6.95;1.80;;;;;;;;;;6185658;23;20131;-68
2023/09/19 06:05:43;;;;;;;6.97;1.80;;;;;;;;;;6185546;23;20084;-68
2023/09/19 06:08:10;;;;;;;8.30;1.95;;;;;;;;;;6185367;23;20095;-68
2023/09/19 06:10:36;;;;;;;8.90;1.70;;;;;;;;;;6185449;23;20072;-68
2023/09/19 06:13:09;;;;;;;10.75;1.92;;;;;;;;;;6185233;23;20076;-68
2023/09/19 06:15:35;;;;;;;9.02;2.25;;;;;;;;;;6179399;23;20084;-73
2023/09/19 06:18:04;;;;;;;8.02;1.60;;;;;;;;;;6182168;23;20072;-72
2023/09/19 06:20:32;;;;;;;15.15;1.90;;;;;;;;;;6182866;23;20361;-72
2023/09/19 06:22:59;;;;;;;5.07;1.92;;;;;;;;;;6184584;23;20076;-71
2023/09/19 06:25:26;;;;;;;8.45;1.73;;;;;;;;;;6183527;23;20091;-72
2023/09/19 06:27:56;;;;;;;7.35;1.90;;;;;;;;;;6183009;23;20084;-72
2023/09/19 06:30:24;;;;;;;8.35;2.08;;;;;;;;;;6180721;23;20080;-71
2023/09/19 06:32:55;;;;;;;6.70;1.90;;;;;;;;;;6183206;23;20068;-72
2023/09/19 06:35:22;;;;;;;9.60;2.05;;;;;;;;;;6183091;23;20128;-71
2023/09/19 06:37:49;;;;;;;9.27;2.08;;;;;;;;;;6184267;23;20076;-72
2023/09/19 06:40:16;;;;;;;13.90;2.22;;;;;;;;;;6184818;23;20084;-71
2023/09/19 06:42:47;;;;;;;6.53;2.00;;;;;;;;;;6184009;23;20081;-72
2023/09/19 06:45:18;;;;;;;11.90;1.75;;;;;;;;;;6182469;23;20080;-72
2023/09/19 06:47:45;;;;;;;8.50;1.88;;;;;;;;;;6183889;23;20088;-71
2023/09/19 06:50:18;;;;;;;10.13;2.35;;;;;;;;;;6184043;23;20081;-71
2023/09/19 06:52:45;;;;;;;14.10;2.70;;;;;;;;;;6184401;23;20446;-71
2023/09/19 06:55:16;;;;;;;14.20;2.40;;;;;;;;;;6184306;23;20412;-71
2023/09/19 06:57:45;;;;;;;9.82;2.28;;;;;;;;;;6184559;23;20080;-72
2023/09/19 07:00:15;;;;;;;7.35;1.95;;;;;;;;;;6184014;23;20127;-71
2023/09/19 07:02:42;;;;;;;8.00;1.65;;;;;;;;;;6183258;23;20091;-72
2023/09/19 07:05:09;;;;;;;11.93;2.38;;;;;;;;;;6180867;23;20104;-72
2023/09/19 07:07:35;;;;;;;7.93;2.30;;;;;;;;;;6181318;23;20339;-72
2023/09/19 07:10:02;;;;;;;9.88;2.10;;;;;;;;;;6181754;23;20068;-72
2023/09/19 07:12:29;;;;;;;15.23;2.15;;;;;;;;;;6182499;23;20088;-72
2023/09/19 07:14:55;;;;;;;9.95;1.90;;;;;;;;;;6183828;23;20427;-72
2023/09/19 07:17:23;;;;;;;11.23;2.40;;;;;;;;;;6183872;23;20124;-71
2023/09/19 07:19:50;;;;;;;8.80;1.60;;;;;;;;;;6183076;23;20068;-71
2023/09/19 07:22:16;;;;;;;7.20;2.22;;;;;;;;;;6183881;23;20365;-72
2023/09/19 07:24:43;;;;;;;7.60;1.92;;;;;;;;;;6183526;23;20088;-71
2023/09/19 07:27:09;;;;;;;7.80;2.22;;;;;;;;;;6183521;23;20095;-72
2023/09/19 07:29:35;;;;;;;7.95;2.00;;;;;;;;;;6157290;23;20126;-72
2023/09/19 07:32:02;;;;;;;8.38;1.98;;;;;;;;;;6182144;23;20080;-71
2023/09/19 07:34:28;;;;;;;11.75;2.35;;;;;;;;;;6156598;23;20068;-71
2023/09/19 07:36:55;;;;;;;8.52;1.80;;;;;;;;;;6183837;23;20139;-72
2023/09/19 07:39:21;;;;;;;13.13;2.03;;;;;;;;;;6183066;23;20067;-71
2023/09/19 07:41:48;;;;;;;5.40;1.67;;;;;;;;;;6183142;23;20389;-72
2023/09/19 07:44:15;;;;;;;8.00;2.03;;;;;;;;;;6183487;23;20090;-72
2023/09/19 07:46:41;;;;;;;7.20;2.10;;;;;;;;;;6183459;23;20092;-71
2023/09/19 07:49:07;;;;;;;11.30;2.20;;;;;;;;;;6157380;23;20060;-71
2023/09/19 07:51:34;;;;;;;7.85;1.95;;;;;;;;;;6181601;23;20083;-72
2023/09/19 07:54:00;;;;;;;9.52;1.80;;;;;;;;;;6182458;23;20068;-71
2023/09/19 07:56:27;;;;;;;5.45;1.70;;;;;;;;;;6182845;23;20072;-71
2023/09/19 07:58:54;;;;;;;6.90;2.20;;;;;;;;;;6183460;23;20507;-72
2023/09/19 08:01:23;;;;;;;8.43;1.88;;;;;;;;;;6183511;23;20068;-72
2023/09/19 08:03:50;;;;;;;6.47;1.35;;;;;;;;;;6183210;23;20123;-72
2023/09/19 08:06:16;;;;;;;7.78;1.60;;;;;;;;;;6183162;23;20096;-72
2023/09/19 08:08:43;;;;;;;5.72;1.80;;;;;;;;;;6183170;23;20376;-72
2023/09/19 08:11:12;;;;;;;4.35;1.60;;;;;;;;;;6182740;23;20087;-72
2023/09/19 08:13:48;;;;;;;8.25;1.65;;;;;;;;;;6182979;23;20072;-72
2023/09/19 08:16:19;;;;;;;8.88;1.63;;;;;;;;;;6183433;23;20499;-72
2023/09/19 08:18:52;;;;;;;4.45;1.52;;;;;;;;;;6183206;23;20088;-72
2023/09/19 08:21:19;;;;;;;6.45;1.50;;;;;;;;;;6183204;23;20075;-72
2023/09/19 08:23:45;;;;;;;4.57;1.60;;;;;;;;;;6183468;23;20083;-72
2023/09/19 08:26:12;;;;;;;5.45;1.30;;;;;;;;;;6183002;23;20096;-72
2023/09/19 08:28:40;;;;;;;4.88;1.92;;;;;;;;;;6183060;23;20076;-72
2023/09/19 08:31:10;;;;;;;5.05;1.65;;;;;;;;;;6183123;23;20072;-72
2023/09/19 08:33:36;;;;;;;3.20;1.30;;;;;;;;;;6157073;23;20061;-72
2023/09/19 08:36:04;;;;;;;6.38;1.20;;;;;;;;;;6183142;23;20076;-72
2023/09/19 08:38:34;;;;;;;11.05;1.30;;;;;;;;;;6184742;23;20080;-72
2023/09/19 08:41:01;;;;;;;6.68;1.35;;;;;;;;;;6185114;23;20075;-72
2023/09/19 08:43:28;;;;;;;4.65;1.40;;;;;;;;;;6185257;23;20080;-72
2023/09/19 08:46:06;;;;;;;3.25;1.02;;;;;;;;;;6185085;23;20504;-72
2023/09/19 08:48:32;;;;;;;3.72;1.58;;;;;;;;;;6184319;23;20068;-72
2023/09/19 08:51:11;;;;;;;4.60;1.10;;;;;;;;;;6185047;23;20076;-72
2023/09/19 08:53:59;;;;;;;2.78;1.50;;;;;;;;;;6157983;23;20096;-72
2023/09/19 08:56:27;;;;;;;2.22;1.20;;;;;;;;;;6184604;23;20060;-72
2023/09/19 08:58:58;;;;;;;2.38;1.15;;;;;;;;;;6184638;23;20440;-72
2023/09/19 09:01:27;;;;;;;2.78;1.17;;;;;;;;;;6184300;23;20079;-72
2023/09/19 09:03:54;;;;;;;2.35;1.30;;;;;;;;;;6183834;23;20084;-72
2023/09/19 09:06:21;;;;;;;2.70;1.20;;;;;;;;;;6184803;23;20095;-73
2023/09/19 09:08:48;;;;;;;4.28;1.50;;;;;;;;;;6157887;23;20083;-72
2023/09/19 09:11:16;;;;;;;2.55;1.10;;;;;;;;;;6183775;23;20072;-72
2023/09/19 09:13:43;;;;;;;2.83;1.05;;;;;;;;;;6185241;23;20073;-72
2023/09/19 09:16:09;;;;;;;2.00;1.10;;;;;;;;;;6183944;23;20419;-73
2023/09/19 09:18:36;;;;;;;2.25;1.50;;;;;;;;;;6184375;23;20068;-72
2023/09/19 09:21:04;;;;;;;5.22;1.20;;;;;;;;;;6183724;23;20516;-72
2023/09/19 09:23:31;;;;;;;2.05;1.30;;;;;;;;;;6184417;23;20080;-72
2023/09/19 09:26:06;;;;;;;4.18;1.60;;;;;;;;;;6184076;23;20135;-72
2023/09/19 09:28:35;;;;;;;2.20;1.00;;;;;;;;;;6184011;23;20512;-72
2023/09/19 09:31:12;;;;;;;3.92;1.10;;;;;;;;;;6184842;23;20072;-73
2023/09/19 09:33:39;;;;;;;4.28;1.48;;;;;;;;;;6184908;23;20077;-73
2023/09/19 09:36:06;;;;;;;2.17;1.02;;;;;;;;;;6184805;23;20076;-72
2023/09/19 09:38:46;;;;;;;2.05;1.00;;;;;;;;;;6184423;23;20084;-72
2023/09/19 09:41:16;;;;;;;2.13;1.15;;;;;;;;;;6184910;23;20076;-72
2023/09/19 09:43:48;;;;;;;1.25;1.10;;;;;;;;;;6184982;23;20072;-73
2023/09/19 09:49:14;;;;;;;2.90;1.00;;;;;;;;;;6184064;23;20603;-73
2023/09/19 09:51:39;;;;;;;1.23;0.82;;;;;;;;;;6182597;23;20076;-72
2023/09/19 09:54:12;;;;;;;3.50;1.25;;;;;;;;;;6184122;23;20076;-72
2023/09/19 09:56:58;;;;;;;4.15;1.48;;;;;;;;;;6183954;23;20507;-73
2023/09/19 09:59:55;;;;;;;3.67;1.17;;;;;;;;;;6183912;23;20068;-72
2023/09/19 10:02:28;;;;;;;3.53;1.27;;;;;;;;;;6159538;23;20080;-67
2023/09/19 10:04:59;;;;;;;4.93;1.52;;;;;;;;;;6183936;23;20068;-68
2023/09/19 10:07:28;;;;;;;6.50;1.30;;;;;;;;;;6184225;23;20071;-68
2023/09/19 10:10:04;;;;;;;2.40;1.40;;;;;;;;;;6184595;23;20060;-68
2023/09/19 10:12:31;;;;;;;3.22;1.30;;;;;;;;;;6184454;23;20369;-67
2023/09/19 10:15:00;;;;;;;3.25;1.45;;;;;;;;;;6184321;23;20395;-68
2023/09/19 10:17:28;;;;;;;4.28;1.30;;;;;;;;;;6184281;23;20137;-68
2023/09/19 10:19:57;;;;;;;3.25;1.40;;;;;;;;;;6183895;23;20084;-68
2023/09/19 10:22:26;;;;;;;6.03;1.55;;;;;;;;;;6184495;23;20108;-68
2023/09/19 10:24:54;;;;;;;2.15;1.35;;;;;;;;;;6184316;23;20088;-68
2023/09/19 10:27:21;;;;;;;2.15;1.38;;;;;;;;;;6184035;23;20495;-67
2023/09/19 10:29:53;;;;;;;3.45;1.20;;;;;;;;;;6184302;23;20072;-68
2023/09/19 10:32:21;;;;;;;2.40;1.30;;;;;;;;;;6184299;23;20092;-68
2023/09/19 10:34:49;;;;;;;4.00;1.38;;;;;;;;;;6184495;23;20368;-68
2023/09/19 10:37:19;;;;;;;5.60;1.40;;;;;;;;;;6183735;23;20071;-68
2023/09/19 10:39:47;;;;;;;2.67;1.40;;;;;;;;;;6184563;23;20499;-68
2023/09/19 10:42:17;;;;;;;4.00;1.50;;;;;;;;;;6158296;23;20079;-68
2023/09/19 10:44:43;;;;;;;;;;;;;;;;;;6184745;23;20073;-68
2023/09/19 10:47:10;;;;;;;6.60;1.52;;;;;;;;;;6184213;23;19994;-68
2023/09/19 10:49:43;;;;;;;2.95;1.40;;;;;;;;;;6184307;23;20060;-68
2023/09/19 10:52:18;;;;;;;2.55;1.35;;;;;;;;;;6183690;23;20103;-66
2023/09/19 10:54:48;;;;;;;1.83;1.30;;;;;;;;;;6184109;23;20068;-66
2023/09/19 10:57:19;;;;;;;3.67;1.70;;;;;;;;;;6157540;23;20084;-68
2023/09/19 11:03:09;;;;;;;2.55;1.42;;;;;;;;;;6183715;23;20076;-68
2023/09/19 11:05:40;;;;;;;1.63;1.38;;;;;;;;;;6163370;23;20096;-69
2023/09/19 11:08:12;;;;;;;4.65;1.65;;;;;;;;;;6183947;23;20079;-68
2023/09/19 11:10:47;;;;;;;1.40;1.30;;;;;;;;;;6183759;23;20072;-68
2023/09/19 11:13:36;;;;;;;2.22;1.40;;;;;;;;;;6183933;23;20230;-68
2023/09/19 11:16:04;;;;;;;3.53;1.40;;;;;;;;;;6183759;23;20076;-68
2023/09/19 11:18:43;;;;;;;2.38;1.40;;;;;;;;;;6183943;23;20399;-69
2023/09/19 11:21:29;;;;;;;2.40;1.40;;;;;;;;;;6157433;23;20083;-68
2023/09/19 11:24:11;;;;;;;2.13;1.45;;;;;;;;;;6183921;23;20421;-68
2023/09/19 11:26:47;;;;;;;3.15;1.42;;;;;;;;;;6183428;23;20631;-69
2023/09/19 11:29:30;;;;;;;9.98;1.77;;;;;;;;;;6183689;23;20076;-68
2023/09/19 11:32:00;;;;;;;4.93;1.63;;;;;;;;;;6183852;23;20080;-68
2023/09/19 11:34:39;;;;;;;3.38;1.70;;;;;;;;;;6183732;23;20081;-68
2023/09/19 11:37:12;;;;;;;6.18;1.50;;;;;;;;;;6157735;23;20081;-69
2023/09/19 11:39:38;;;;;;;3.08;1.70;;;;;;;;;;6180144;23;20095;-68
2023/09/19 11:42:23;;;;;;;3.13;1.55;;;;;;;;;;6182740;23;20388;-68
2023/09/19 11:44:51;;;;;;;3.92;1.50;;;;;;;;;;6183274;23;20076;-66
2023/09/19 11:47:19;;;;;;;7.80;1.70;;;;;;;;;;6183624;23;20105;-69
2023/09/19 11:49:45;;;;;;;3.88;1.60;;;;;;;;;;6183100;23;20484;-69
2023/09/19 11:52:13;;;;;;;3.05;1.35;;;;;;;;;;6182729;23;20072;-68
2023/09/19 11:54:41;;;;;;;3.15;1.77;;;;;;;;;;6182882;23;20499;-66
2023/09/19 11:57:08;;;;;;;4.35;1.40;;;;;;;;;;6156689;23;20092;-68
2023/09/19 11:59:36;;;;;;;4.25;1.70;;;;;;;;;;6183768;23;20092;-68
2023/09/19 12:02:06;;;;;;;2.83;1.58;;;;;;;;;;6182861;23;20087;-66
2023/09/19 12:04:41;;;;;;;4.15;1.80;;;;;;;;;;6182506;23;20080;-66
2023/09/19 12:07:10;;;;;;;2.15;1.70;;;;;;;;;;6182587;23;20084;-66
2023/09/19 12:09:42;;;;;;;4.07;1.42;;;;;;;;;;6182622;23;20080;-66
2023/09/19 12:12:09;;;;;;;2.90;1.58;;;;;;;;;;6184565;23;20393;-66
2023/09/19 12:14:35;;;;;;;1.98;1.60;;;;;;;;;;6186763;23;20068;-66
2023/09/19 12:17:03;;;;;;;2.28;1.50;;;;;;;;;;6186294;23;20072;-66
2023/09/19 12:19:29;;;;;;;2.40;1.65;;;;;;;;;;6185581;23;20104;-67
2023/09/19 12:22:04;;;;;;;1.92;1.42;;;;;;;;;;6186140;23;20068;-67
2023/09/19 12:24:31;;;;;;;2.17;1.40;;;;;;;;;;6186729;23;20088;-67
2023/09/19 12:27:01;;;;;;;2.15;1.63;;;;;;;;;;6186449;23;20092;-66
2023/09/19 12:29:29;;;;;;;3.53;1.80;;;;;;;;;;6184675;23;20100;-67
2023/09/19 12:32:03;;;;;;;2.30;1.63;;;;;;;;;;6184967;23;20064;-67
2023/09/19 12:34:34;;;;;;;2.33;1.52;;;;;;;;;;6160594;23;20076;-68
2023/09/19 12:37:20;;;;;;;2.55;1.80;;;;;;;;;;6186011;23;20495;-67
2023/09/19 12:39:51;;;;;;;3.15;1.65;;;;;;;;;;6186691;23;20075;-67
2023/09/19 12:42:18;;;;;;;3.13;1.75;;;;;;;;;;6186003;23;20016;-66
2023/09/19 12:44:46;;;;;;;2.45;1.70;;;;;;;;;;6185823;23;20064;-67
2023/09/19 12:47:15;;;;;;;3.65;1.70;;;;;;;;;;6184705;23;20088;-67
2023/09/19 12:50:01;;;;;;;2.42;1.88;;;;;;;;;;6185168;23;20623;-67
2023/09/19 12:52:35;;;;;;;2.83;1.80;;;;;;;;;;6185668;23;20068;-67
2023/09/19 12:55:04;;;;;;;2.63;1.90;;;;;;;;;;6186610;23;20079;-67
2023/09/19 12:57:34;;;;;;;4.03;1.90;;;;;;;;;;6186009;23;20512;-67
2023/09/19 13:00:10;;;;;;;1.98;1.58;;;;;;;;;;6185941;23;20084;-66
2023/09/19 13:02:37;;;;;;;1.95;1.67;;;;;;;;;;6185922;23;20064;-66
2023/09/19 13:05:06;;;;;;;3.10;1.77;;;;;;;;;;6185981;23;20385;-66
2023/09/19 13:07:47;;;;;;;3.75;1.65;;;;;;;;;;6185186;23;20084;-65
2023/09/19 13:10:20;;;;;;;2.00;1.45;;;;;;;;;;6185792;23;20088;-66
2023/09/19 13:12:47;;;;;;;1.98;1.63;;;;;;;;;;6186007;23;20079;-66
2023/09/19 13:15:20;;;;;;;2.03;1.60;;;;;;;;;;6186718;23;20391;-66
2023/09/19 13:17:48;;;;;;;1.70;1.45;;;;;;;;;;6185927;23;20385;-66
2023/09/19 13:20:27;;;;;;;2.28;1.60;;;;;;;;;;6186770;23;20068;-65
2023/09/19 13:23:10;;;;;;;;;;;;;;;;;;6186763;23;20072;-66
2023/09/19 13:25:36;;;;;;;1.67;1.58;;;;;;;;;;6184948;23;20346;-66
2023/09/19 13:28:05;;;;;;;6.78;1.70;;;;;;;;;;6183571;23;20084;-65
2023/09/19 13:30:32;;;;;;;1.50;1.23;;;;;;;;;;6184493;23;20164;-66
2023/09/19 13:33:11;;;;;;;5.03;1.48;;;;;;;;;;6184776;23;20076;-66
2023/09/19 13:35:40;;;;;;;3.85;1.90;;;;;;;;;;6184536;23;20096;-66
2023/09/19 13:38:11;;;;;;;6.57;1.75;;;;;;;;;;6157487;23;20626;-66
2023/09/19 13:40:39;;;;;;;7.75;2.03;;;;;;;;;;6184396;23;20068;-66
2023/09/19 13:43:06;;;;;;;3.72;1.45;;;;;;;;;;6184328;23;20401;-66
2023/09/19 13:45:33;;;;;;;2.70;1.65;;;;;;;;;;6184459;23;20072;-65
2023/09/19 13:47:59;;;;;;;1.70;1.33;;;;;;;;;;6184014;23;20084;-66
2023/09/19 13:50:26;;;;;;;4.18;1.50;;;;;;;;;;6181538;23;20072;-66
2023/09/19 13:52:53;;;;;;;2.28;1.60;;;;;;;;;;6182762;23;20111;-66
2023/09/19 13:55:20;;;;;;;2.33;1.30;;;;;;;;;;6184155;23;20072;-66
2023/09/19 13:57:50;;;;;;;2.10;1.65;;;;;;;;;;6184656;23;20068;-66
2023/09/19 14:00:17;;;;;;;2.22;1.40;;;;;;;;;;6183981;23;20068;-65
2023/09/19 14:02:45;;;;;;;1.92;1.30;;;;;;;;;;6183955;23;20100;-66
2023/09/19 14:05:14;;;;;;;1.95;1.30;;;;;;;;;;6183886;23;20080;-67
2023/09/19 14:07:41;;;;;;;2.58;1.33;;;;;;;;;;6183929;23;20076;-67
2023/09/19 14:10:08;;;;;;;1.55;1.23;;;;;;;;;;6183450;23;20112;-67
2023/09/19 14:12:34;;;;;;;2.08;1.45;;;;;;;;;;6183340;23;20072;-67
2023/09/19 14:15:01;;;;;;;2.72;1.50;;;;;;;;;;6155739;23;20100;-67
2023/09/19 14:17:28;;;;;;;2.30;1.55;;;;;;;;;;6184364;23;20092;-67
2023/09/19 14:19:54;;;;;;;2.78;1.52;;;;;;;;;;6183798;23;20136;-67
2023/09/19 14:22:20;;;;;;;1.63;1.30;;;;;;;;;;6183795;23;20076;-67
2023/09/19 14:24:47;;;;;;;2.17;1.35;;;;;;;;;;6156649;23;20541;-67
2023/09/19 14:27:14;;;;;;;1.30;1.20;;;;;;;;;;6183789;23;20080;-67
2023/09/19 14:29:41;;;;;;;1.63;1.42;;;;;;;;;;6183077;23;20208;-67
2023/09/19 14:32:07;;;;;;;2.80;1.67;;;;;;;;;;6183046;23;20089;-67
2023/09/19 14:34:33;;;;;;;1.90;1.60;;;;;;;;;;6183412;23;20373;-67
2023/09/19 14:37:00;;;;;;;1.48;1.38;;;;;;;;;;6183423;23;20131;-67
2023/09/19 14:39:27;;;;;;;3.28;1.42;;;;;;;;;;6184087;23;20128;-67
2023/09/19 14:41:53;;;;;;;3.10;1.27;;;;;;;;;;6157657;23;20084;-67
2023/09/19 14:44:20;;;;;;;2.55;1.60;;;;;;;;;;6131354;23;20089;-67
2023/09/19 14:46:46;;;;;;;2.03;1.30;;;;;;;;;;6182280;23;20112;-67
2023/09/19 14:49:12;;;;;;;2.63;1.58;;;;;;;;;;6157057;23;20072;-67
2023/09/19 14:51:39;;;;;;;1.30;1.10;;;;;;;;;;6182685;23;20100;-66
2023/09/19 14:54:07;;;;;;;2.83;1.25;;;;;;;;;;6183681;23;20091;-67
2023/09/19 14:56:34;;;;;;;2.13;1.58;;;;;;;;;;6183706;23;20088;-67
2023/09/19 14:59:00;;;;;;;3.60;1.60;;;;;;;;;;6132393;23;20135;-67
2023/09/19 15:01:27;;;;;;;2.25;1.45;;;;;;;;;;6181455;23;20395;-67